createdAt,value
2018-11-04T00:01:36.451Z,2.70
2018-11-04T00:04:04.265Z,1.90
2018-11-04T00:06:31.773Z,4.03
2018-11-04T00:08:59.251Z,2.40
2018-11-04T00:11:26.878Z,5.07
2018-11-04T00:13:54.371Z,2.30
2018-11-04T00:16:21.848Z,2.10
2018-11-04T00:18:49.571Z,1.83
2018-11-04T00:21:17.136Z,1.57
2018-11-04T00:23:44.618Z,0.90
2018-11-04T00:26:12.307Z,2.23
2018-11-04T00:28:39.844Z,1.40
2018-11-04T00:31:07.277Z,2.80
2018-11-04T00:33:34.937Z,0.93
2018-11-04T00:36:02.435Z,1.97
2018-11-04T00:38:29.899Z,0.70
2018-11-04T00:40:57.656Z,2.83
2018-11-04T00:43:25.163Z,1.27
2018-11-04T00:45:52.656Z,0.90
2018-11-04T00:48:20.470Z,1.33
2018-11-04T00:50:47.961Z,1.17
2018-11-04T00:53:15.457Z,0.97
2018-11-04T00:55:52.573Z,1.20
2018-11-04T00:58:20.461Z,0.83
2018-11-04T01:00:47.888Z,0.70
2018-11-04T01:03:15.746Z,1.30
2018-11-04T01:05:43.210Z,1.50
2018-11-04T01:08:10.686Z,1.00
2018-11-04T01:10:38.482Z,1.87
2018-11-04T01:13:05.982Z,1.27
2018-11-04T01:15:33.449Z,1.57
2018-11-04T01:18:01.321Z,1.03
2018-11-04T01:20:28.881Z,1.73
2018-11-04T01:22:56.344Z,1.27
2018-11-04T01:25:24.058Z,1.53
2018-11-04T01:27:51.494Z,1.00
2018-11-04T01:30:19.010Z,2.30
2018-11-04T01:32:46.755Z,0.80
2018-11-04T01:35:14.221Z,1.10
2018-11-04T01:37:41.721Z,0.97
2018-11-04T01:40:10.057Z,1.83
2018-11-04T01:42:37.624Z,2.30
2018-11-04T01:45:06.470Z,1.00
2018-11-04T01:47:34.137Z,0.97
2018-11-04T01:50:01.660Z,1.30
2018-11-04T01:52:29.089Z,0.83
2018-11-04T01:54:57.002Z,1.07
2018-11-04T01:57:24.452Z,1.83
2018-11-04T01:59:51.980Z,2.13
2018-11-04T02:02:19.781Z,1.57
2018-11-04T02:04:47.242Z,1.20
2018-11-04T02:07:14.700Z,1.10
2018-11-04T02:09:42.630Z,0.97
2018-11-04T02:12:10.114Z,0.60
2018-11-04T02:14:37.598Z,1.67
2018-11-04T02:17:05.608Z,2.30
2018-11-04T02:19:33.100Z,0.70
2018-11-04T02:22:00.590Z,2.53
2018-11-04T02:24:28.538Z,0.70
2018-11-04T02:26:56.042Z,0.70
2018-11-04T02:29:23.547Z,1.07
2018-11-04T02:31:51.498Z,1.30
2018-11-04T02:34:18.995Z,0.70
2018-11-04T02:36:46.537Z,0.53
2018-11-04T02:39:14.402Z,1.67
2018-11-04T02:41:41.866Z,1.43
2018-11-04T02:44:09.368Z,1.67
2018-11-04T02:46:37.338Z,1.60
2018-11-04T02:49:05.059Z,1.07
2018-11-04T02:51:32.542Z,1.97
2018-11-04T02:54:00.146Z,0.70
2018-11-04T02:56:27.630Z,1.30
2018-11-04T02:58:55.076Z,0.50
2018-11-04T03:01:22.814Z,0.80
2018-11-04T03:03:50.232Z,1.40
2018-11-04T03:06:17.730Z,1.57
2018-11-04T03:08:45.477Z,2.03
2018-11-04T03:11:12.954Z,1.37
2018-11-04T03:13:40.342Z,0.97
2018-11-04T03:16:08.119Z,0.60
2018-11-04T03:18:35.589Z,1.37
2018-11-04T03:21:03.048Z,4.27
2018-11-04T03:23:30.735Z,0.97
2018-11-04T03:25:58.210Z,1.07
2018-11-04T03:28:25.675Z,1.00
2018-11-04T03:30:53.682Z,2.07
2018-11-04T03:33:21.189Z,0.80
2018-11-04T03:35:48.687Z,1.07
2018-11-04T03:38:16.672Z,2.30
2018-11-04T03:40:44.188Z,1.10
2018-11-04T03:43:11.645Z,1.57
2018-11-04T03:45:39.414Z,1.00
2018-11-04T03:48:06.928Z,1.27
2018-11-04T03:50:34.403Z,1.03
2018-11-04T03:53:05.561Z,0.63
2018-11-04T03:55:33.526Z,0.70
2018-11-04T03:58:01.157Z,1.63
2018-11-04T04:00:28.956Z,1.33
2018-11-04T04:02:56.457Z,1.17
2018-11-04T04:05:23.972Z,1.43
2018-11-04T04:07:51.609Z,0.93
2018-11-04T04:10:19.135Z,0.80
2018-11-04T04:12:46.633Z,1.60
2018-11-04T04:15:14.491Z,2.00
2018-11-04T04:17:42.002Z,2.07
2018-11-04T04:20:09.519Z,0.80
2018-11-04T04:22:37.313Z,1.37
2018-11-04T04:25:05.241Z,0.83
2018-11-04T04:27:32.720Z,0.83
2018-11-04T04:30:00.475Z,0.77
2018-11-04T04:32:27.949Z,1.27
2018-11-04T04:34:55.493Z,2.33
2018-11-04T04:37:23.192Z,1.13
2018-11-04T04:39:50.637Z,1.97
2018-11-04T04:42:18.071Z,0.90
2018-11-04T04:44:46.001Z,0.97
2018-11-04T04:47:13.425Z,0.47
2018-11-04T04:49:40.926Z,0.80
2018-11-04T04:52:08.703Z,0.73
2018-11-04T04:54:36.215Z,0.60
2018-11-04T04:57:03.691Z,1.07
2018-11-04T04:59:31.700Z,1.10
2018-11-04T05:01:59.163Z,2.43
2018-11-04T05:04:26.699Z,0.97
2018-11-04T05:06:54.427Z,0.80
2018-11-04T05:09:21.902Z,1.73
2018-11-04T05:11:49.404Z,0.87
2018-11-04T05:14:17.409Z,1.17
2018-11-04T05:16:44.863Z,0.60
2018-11-04T05:19:12.678Z,1.10
2018-11-04T05:21:40.264Z,1.70
2018-11-04T05:24:07.744Z,0.83
2018-11-04T05:26:35.217Z,1.93
2018-11-04T05:29:03.016Z,1.50
2018-11-04T05:31:30.516Z,1.67
2018-11-04T05:33:57.961Z,1.20
2018-11-04T05:36:25.585Z,0.90
2018-11-04T05:38:53.086Z,1.30
2018-11-04T05:41:20.558Z,1.50
2018-11-04T05:43:48.238Z,0.80
2018-11-04T05:46:15.696Z,1.30
2018-11-04T05:48:43.131Z,0.60
2018-11-04T05:51:10.848Z,1.10
2018-11-04T05:53:39.325Z,1.00
2018-11-04T05:56:07.118Z,0.60
2018-11-04T05:58:35.087Z,1.20
2018-11-04T06:01:02.573Z,0.90
2018-11-04T06:03:30.063Z,0.70
2018-11-04T06:05:57.979Z,0.70
2018-11-04T06:08:25.483Z,1.20
2018-11-04T06:10:52.942Z,0.90
2018-11-04T06:13:20.571Z,1.87
2018-11-04T06:15:48.036Z,0.97
2018-11-04T06:18:15.508Z,1.10
2018-11-04T06:20:43.542Z,0.90
2018-11-04T06:23:10.974Z,3.10
2018-11-04T06:25:38.436Z,1.10
2018-11-04T06:28:06.135Z,1.43
2018-11-04T06:30:33.617Z,1.53
2018-11-04T06:33:01.127Z,1.00
2018-11-04T06:35:28.966Z,1.97
2018-11-04T06:37:56.422Z,1.10
2018-11-04T06:40:23.904Z,0.70
2018-11-04T06:42:51.643Z,1.10
2018-11-04T06:45:19.103Z,2.73
2018-11-04T06:47:46.811Z,0.90
2018-11-04T06:50:14.589Z,1.80
2018-11-04T06:52:42.640Z,0.77
2018-11-04T06:55:10.258Z,0.83
2018-11-04T06:57:38.309Z,1.90
2018-11-04T07:00:07.160Z,1.20
2018-11-04T07:02:34.676Z,1.00
2018-11-04T07:05:02.630Z,0.70
2018-11-04T07:07:30.099Z,2.50
2018-11-04T07:09:57.540Z,1.27
2018-11-04T07:12:25.500Z,1.40
2018-11-04T07:14:52.975Z,0.83
2018-11-04T07:17:20.418Z,1.20
2018-11-04T07:19:48.314Z,2.13
2018-11-04T07:22:15.752Z,0.87
2018-11-04T07:24:43.234Z,0.97
2018-11-04T07:27:11.143Z,0.70
2018-11-04T07:29:38.640Z,0.57
2018-11-04T07:32:06.214Z,0.70
2018-11-04T07:34:33.989Z,0.90
2018-11-04T07:37:01.473Z,1.33
2018-11-04T07:39:29.010Z,1.50
2018-11-04T07:41:56.799Z,2.00
2018-11-04T07:44:24.311Z,1.60
2018-11-04T07:46:51.752Z,0.60
2018-11-04T07:49:19.684Z,1.70
2018-11-04T07:51:47.138Z,0.53
2018-11-04T07:54:14.627Z,1.07
2018-11-04T07:56:42.600Z,0.80
2018-11-04T07:59:10.062Z,0.83
2018-11-04T08:01:37.526Z,1.13
2018-11-04T08:04:05.507Z,1.23
2018-11-04T08:06:32.970Z,0.77
2018-11-04T08:09:00.495Z,1.80
2018-11-04T08:11:28.087Z,1.10
2018-11-04T08:13:55.551Z,0.70
2018-11-04T08:16:23.030Z,0.83
2018-11-04T08:18:50.909Z,0.73
2018-11-04T08:21:18.438Z,1.30
2018-11-04T08:23:45.828Z,1.23
2018-11-04T08:26:13.612Z,1.53
2018-11-04T08:28:41.121Z,1.40
2018-11-04T08:31:23.661Z,0.97
2018-11-04T08:33:51.154Z,1.20
2018-11-04T08:36:18.618Z,0.60
2018-11-04T08:38:46.310Z,0.70
2018-11-04T08:41:13.796Z,1.40
2018-11-04T08:43:41.278Z,1.23
2018-11-04T08:46:09.120Z,2.10
2018-11-04T08:48:36.539Z,2.17
2018-11-04T08:51:04.050Z,1.53
2018-11-04T08:53:31.930Z,0.80
2018-11-04T08:55:59.397Z,3.33
2018-11-04T08:58:26.859Z,1.50
2018-11-04T09:00:54.833Z,3.50
2018-11-04T09:03:22.283Z,3.03
2018-11-04T09:05:49.801Z,4.27
2018-11-04T09:08:17.581Z,2.23
2018-11-04T09:10:45.079Z,2.63
2018-11-04T09:13:12.567Z,2.97
2018-11-04T09:15:40.469Z,1.70
2018-11-04T09:18:07.987Z,1.63
2018-11-04T09:20:35.480Z,1.70
2018-11-04T09:23:03.375Z,1.50
2018-11-04T09:25:30.843Z,2.03
2018-11-04T09:27:58.279Z,2.47
2018-11-04T09:30:25.965Z,2.17
2018-11-04T09:32:53.487Z,2.90
2018-11-04T09:35:21.088Z,2.33
2018-11-04T09:37:48.834Z,2.23
2018-11-04T09:43:14.979Z,1.30
2018-11-04T09:45:42.428Z,1.77
2018-11-04T09:48:09.885Z,3.03
2018-11-04T09:50:37.728Z,2.10
2018-11-04T09:53:05.397Z,1.53
2018-11-04T09:55:32.840Z,3.07
2018-11-04T09:58:00.597Z,1.97
2018-11-04T10:00:28.089Z,4.03
2018-11-04T10:02:55.549Z,3.47
2018-11-04T10:05:23.432Z,3.10
2018-11-04T10:07:50.901Z,3.17
2018-11-04T10:10:18.310Z,4.07
2018-11-04T10:12:45.902Z,2.03
2018-11-04T10:15:13.304Z,3.80
2018-11-04T10:17:41.228Z,1.83
2018-11-04T10:20:10.628Z,1.97
2018-11-04T10:22:38.064Z,4.00
2018-11-04T10:25:06.438Z,2.03
2018-11-04T10:27:34.041Z,3.27
2018-11-04T10:30:01.462Z,2.57
2018-11-04T10:32:28.926Z,4.87
2018-11-04T10:34:56.574Z,4.40
2018-11-04T10:37:24.074Z,2.53
2018-11-04T10:39:51.617Z,3.47
2018-11-04T10:42:19.323Z,4.03
2018-11-04T10:44:46.732Z,2.00
2018-11-04T10:47:14.198Z,3.80
2018-11-04T10:49:41.859Z,4.83
2018-11-04T10:52:09.428Z,3.77
2018-11-04T10:54:36.917Z,2.67
2018-11-04T10:57:04.719Z,4.13
2018-11-04T10:59:32.136Z,7.43
2018-11-04T11:02:30.580Z,4.40
2018-11-04T11:04:58.049Z,6.80
2018-11-04T11:07:25.523Z,2.50
2018-11-04T11:09:53.140Z,4.13
2018-11-04T11:12:20.604Z,2.97
2018-11-04T11:14:48.043Z,4.10
2018-11-04T11:17:15.862Z,5.57
2018-11-04T11:19:43.312Z,4.20
2018-11-04T11:22:10.821Z,4.53
2018-11-04T11:24:38.565Z,3.50
2018-11-04T11:27:06.085Z,6.10
2018-11-04T11:29:33.505Z,8.27
2018-11-04T11:32:01.326Z,4.97
2018-11-04T11:34:28.783Z,5.20
2018-11-04T11:36:56.299Z,7.00
2018-11-04T11:39:24.067Z,3.30
2018-11-04T11:41:51.462Z,5.00
2018-11-04T11:44:18.986Z,2.57
2018-11-04T11:46:46.986Z,5.07
2018-11-04T11:49:14.436Z,4.43
2018-11-04T11:51:41.880Z,3.63
2018-11-04T11:54:09.563Z,3.40
2018-11-04T11:56:37.038Z,5.13
2018-11-04T11:59:05.225Z,6.30
2018-11-04T12:01:33.076Z,2.47
2018-11-04T12:04:00.553Z,6.10
2018-11-04T12:06:27.995Z,5.23
2018-11-04T12:08:55.751Z,2.43
2018-11-04T12:11:23.326Z,5.47
2018-11-04T12:13:50.787Z,5.20
2018-11-04T12:16:18.757Z,4.17
2018-11-04T12:18:46.197Z,2.80
2018-11-04T12:21:13.847Z,3.97
2018-11-04T12:23:41.724Z,4.77
2018-11-04T12:26:09.113Z,6.50
2018-11-04T12:28:36.922Z,6.37
2018-11-04T12:31:05.021Z,5.27
2018-11-04T12:33:32.592Z,6.80
2018-11-04T12:36:00.056Z,4.13
2018-11-04T12:38:27.812Z,7.57
2018-11-04T12:40:55.387Z,3.60
2018-11-04T12:43:23.016Z,6.40
2018-11-04T12:45:50.869Z,7.03
2018-11-04T12:48:18.557Z,5.70
2018-11-04T12:50:46.022Z,4.97
2018-11-04T12:53:13.827Z,3.80
2018-11-04T12:55:41.290Z,5.10
2018-11-04T12:58:08.952Z,3.90
2018-11-04T13:00:36.724Z,2.40
2018-11-04T13:03:04.272Z,6.50
2018-11-04T13:05:31.732Z,2.87
2018-11-04T13:07:59.450Z,5.00
2018-11-04T13:10:26.899Z,6.30
2018-11-04T13:12:54.365Z,5.07
2018-11-04T13:15:22.089Z,2.20
2018-11-04T13:17:56.333Z,5.50
2018-11-04T13:20:24.175Z,6.03
2018-11-04T13:22:51.634Z,5.40
2018-11-04T13:25:19.177Z,6.17
2018-11-04T13:27:47.143Z,4.13
2018-11-04T13:30:14.982Z,4.37
2018-11-04T13:32:42.569Z,2.53
2018-11-04T13:35:10.360Z,8.37
2018-11-04T13:37:38.027Z,3.33
2018-11-04T13:40:07.394Z,5.93
2018-11-04T13:42:35.047Z,5.07
2018-11-04T13:45:02.759Z,4.97
2018-11-04T13:47:30.189Z,7.37
2018-11-04T13:49:57.870Z,4.10
2018-11-04T13:52:25.360Z,2.80
2018-11-04T13:54:52.821Z,5.37
2018-11-04T13:57:20.737Z,4.37
2018-11-04T13:59:48.423Z,7.47
2018-11-04T14:02:15.922Z,6.23
2018-11-04T14:04:43.710Z,4.47
2018-11-04T14:07:11.163Z,4.70
2018-11-04T14:09:38.734Z,4.73
2018-11-04T14:12:06.479Z,6.60
2018-11-04T14:14:33.928Z,6.60
2018-11-04T14:17:01.454Z,7.77
2018-11-04T14:19:29.262Z,5.73
2018-11-04T14:21:56.693Z,5.40
2018-11-04T14:24:24.349Z,6.77
2018-11-04T14:26:55.045Z,3.70
2018-11-04T14:29:22.607Z,7.67
2018-11-04T14:31:50.027Z,5.63
2018-11-04T14:34:17.708Z,4.83
2018-11-04T14:36:45.281Z,3.57
2018-11-04T14:39:12.753Z,3.07
2018-11-04T14:41:40.387Z,6.17
2018-11-04T14:44:07.893Z,6.97
2018-11-04T14:46:35.567Z,6.30
2018-11-04T14:49:03.510Z,5.30
2018-11-04T14:51:31.025Z,9.40
2018-11-04T14:53:58.583Z,5.50
2018-11-04T14:56:27.738Z,5.17
2018-11-04T14:58:55.688Z,6.03
2018-11-04T15:01:23.244Z,5.80
2018-11-04T15:03:51.233Z,4.20
2018-11-04T15:06:18.699Z,5.10
2018-11-04T15:08:46.161Z,8.73
2018-11-04T15:11:13.961Z,8.27
2018-11-04T15:13:41.700Z,6.03
2018-11-04T15:16:09.244Z,6.20
2018-11-04T15:18:37.068Z,4.63
2018-11-04T15:21:04.720Z,4.57
2018-11-04T15:23:32.265Z,4.63
2018-11-04T15:25:59.938Z,5.03
2018-11-04T15:28:27.397Z,3.93
2018-11-04T15:30:54.838Z,7.47
2018-11-04T15:33:22.645Z,6.07
2018-11-04T15:35:50.088Z,4.43
2018-11-04T15:38:17.564Z,6.60
2018-11-04T15:40:45.464Z,5.97
2018-11-04T15:43:12.810Z,5.97
2018-11-04T15:45:40.252Z,6.37
2018-11-04T15:48:08.055Z,5.30
2018-11-04T15:50:35.527Z,7.97
2018-11-04T15:53:03.157Z,10.33
2018-11-04T15:55:30.717Z,5.33
2018-11-04T15:57:58.146Z,6.27
2018-11-04T16:00:25.614Z,5.87
2018-11-04T16:02:53.249Z,7.10
2018-11-04T16:05:20.796Z,4.70
2018-11-04T16:07:48.207Z,7.43
2018-11-04T16:10:16.025Z,3.70
2018-11-04T16:12:43.497Z,5.33
2018-11-04T16:15:12.466Z,3.83
2018-11-04T16:17:40.409Z,7.80
2018-11-04T16:20:09.576Z,5.40
2018-11-04T16:22:37.557Z,7.30
2018-11-04T16:25:05.936Z,5.13
2018-11-04T16:27:33.441Z,7.63
2018-11-04T16:30:00.958Z,6.70
2018-11-04T16:33:31.518Z,4.67
2018-11-04T16:35:58.975Z,4.87
2018-11-04T16:38:26.494Z,5.27
2018-11-04T16:40:54.169Z,4.70
2018-11-04T16:43:21.684Z,5.27
2018-11-04T16:45:49.167Z,8.57
2018-11-04T16:48:16.790Z,6.47
2018-11-04T16:50:44.204Z,7.87
2018-11-04T16:53:11.848Z,5.17
2018-11-04T16:55:39.466Z,5.97
2018-11-04T16:58:06.950Z,6.57
2018-11-04T17:00:34.440Z,8.03
2018-11-04T17:03:02.095Z,4.07
2018-11-04T17:05:29.681Z,4.00
2018-11-04T17:07:57.018Z,6.57
2018-11-04T17:10:24.707Z,7.93
2018-11-04T17:12:52.257Z,3.77
2018-11-04T17:15:20.029Z,8.43
2018-11-04T17:17:47.649Z,4.80
2018-11-04T17:20:16.573Z,5.83
2018-11-04T17:22:44.461Z,8.00
2018-11-04T17:25:12.225Z,6.53
2018-11-04T17:27:39.757Z,3.43
2018-11-04T17:30:09.553Z,9.10
2018-11-04T17:32:37.369Z,9.63
2018-11-04T17:35:05.869Z,6.23
2018-11-04T17:37:33.392Z,5.40
2018-11-04T17:40:01.132Z,4.73
2018-11-04T17:42:28.669Z,9.13
2018-11-04T17:44:56.298Z,4.77
2018-11-04T17:47:23.988Z,4.43
2018-11-04T17:49:51.525Z,5.90
2018-11-04T17:52:19.097Z,4.13
2018-11-04T17:54:46.732Z,3.77
2018-11-04T17:57:14.509Z,6.33
2018-11-04T17:59:42.978Z,2.77
2018-11-04T18:02:10.522Z,5.37
2018-11-04T18:04:37.978Z,7.43
2018-11-04T18:07:05.499Z,4.90
2018-11-04T18:09:33.188Z,6.37
2018-11-04T18:12:00.643Z,4.30
2018-11-04T18:14:28.132Z,3.47
2018-11-04T18:16:55.664Z,5.47
2018-11-04T18:19:23.143Z,3.73
2018-11-04T18:21:50.703Z,5.37
2018-11-04T18:24:18.283Z,5.30
2018-11-04T18:26:45.780Z,5.73
2018-11-04T18:29:13.281Z,5.53
2018-11-04T18:31:40.827Z,7.00
2018-11-04T18:34:08.307Z,6.07
2018-11-04T18:36:35.771Z,7.53
2018-11-04T18:39:04.230Z,5.37
2018-11-04T18:42:02.420Z,5.13
2018-11-04T18:44:30.053Z,4.00
2018-11-04T18:46:57.487Z,6.17
2018-11-04T18:49:25.119Z,5.13
2018-11-04T18:51:52.738Z,6.27
2018-11-04T18:54:20.216Z,2.83
2018-11-04T18:56:47.732Z,5.50
2018-11-04T18:59:15.455Z,3.80
2018-11-04T19:01:42.918Z,7.93
2018-11-04T19:04:10.347Z,6.63
2018-11-04T19:06:37.969Z,6.57
2018-11-04T19:09:06.711Z,6.20
2018-11-04T19:11:34.273Z,5.07
2018-11-04T19:14:01.833Z,5.50
2018-11-04T19:16:29.281Z,3.13
2018-11-04T19:18:56.998Z,5.80
2018-11-04T19:21:24.500Z,6.20
2018-11-04T19:23:52.026Z,4.33
2018-11-04T19:26:19.551Z,6.57
2018-11-04T19:28:47.084Z,4.80
2018-11-04T19:31:14.644Z,3.30
2018-11-04T19:33:42.223Z,4.47
2018-11-04T19:36:09.765Z,3.57
2018-11-04T19:38:37.247Z,4.33
2018-11-04T19:41:04.883Z,5.30
2018-11-04T19:43:32.503Z,4.53
2018-11-04T19:45:59.983Z,5.60
2018-11-04T19:48:27.531Z,7.20
2018-11-04T19:50:55.117Z,4.67
2018-11-04T19:53:22.556Z,3.20
2018-11-04T19:55:50.062Z,4.90
2018-11-04T19:58:17.799Z,5.33
2018-11-04T20:00:45.182Z,4.70
2018-11-04T20:03:12.839Z,5.03
2018-11-04T20:05:40.542Z,2.60
2018-11-04T20:08:08.049Z,3.67
2018-11-04T20:10:35.713Z,4.37
2018-11-04T20:13:08.944Z,6.03
2018-11-04T20:15:36.481Z,4.67
2018-11-04T20:18:09.715Z,3.60
2018-11-04T20:20:37.337Z,4.60
2018-11-04T20:23:04.826Z,7.97
2018-11-04T20:25:38.026Z,5.17
2018-11-04T20:28:05.503Z,5.33
2018-11-04T20:30:32.981Z,1.83
2018-11-04T20:33:03.366Z,2.53
2018-11-04T20:35:30.954Z,6.90
2018-11-04T20:37:58.409Z,5.33
2018-11-04T20:40:31.769Z,5.03
2018-11-04T20:42:59.321Z,3.50
2018-11-04T20:45:26.762Z,3.73
2018-11-04T20:47:59.956Z,4.67
2018-11-04T20:51:04.384Z,3.70
2018-11-04T20:53:32.004Z,3.80
2018-11-04T20:56:05.061Z,6.17
2018-11-04T20:58:41.806Z,4.23
2018-11-04T21:01:09.364Z,5.80
2018-11-04T21:03:36.818Z,3.67
2018-11-04T21:06:04.988Z,3.47
2018-11-04T21:08:32.433Z,7.23
2018-11-04T21:10:59.880Z,5.20
2018-11-04T21:13:27.961Z,3.77
2018-11-04T21:15:55.435Z,3.47
2018-11-04T21:18:22.873Z,3.20
2018-11-04T21:20:50.638Z,3.60
2018-11-04T21:23:18.138Z,2.43
2018-11-04T21:25:45.810Z,3.20
2018-11-04T21:28:13.963Z,3.73
2018-11-04T21:30:41.443Z,3.83
2018-11-04T21:33:08.873Z,2.43
2018-11-04T21:35:36.488Z,5.23
2018-11-04T21:38:03.934Z,3.97
2018-11-04T21:40:31.341Z,3.80
2018-11-04T21:42:58.988Z,2.40
2018-11-04T21:45:26.434Z,2.53
2018-11-04T21:47:53.898Z,2.30
2018-11-04T21:50:21.591Z,3.00
2018-11-04T21:52:48.987Z,4.20
2018-11-04T21:55:16.519Z,3.03
2018-11-04T21:57:44.739Z,6.27
2018-11-04T22:00:13.760Z,3.47
2018-11-04T22:02:41.744Z,3.60
2018-11-04T22:05:09.947Z,3.60
2018-11-04T22:07:37.495Z,4.40
2018-11-04T22:10:07.240Z,2.03
2018-11-04T22:12:35.029Z,2.70
2018-11-04T22:15:02.533Z,4.67
2018-11-04T22:17:29.992Z,3.37
2018-11-04T22:19:58.019Z,3.53
2018-11-04T22:22:25.491Z,3.03
2018-11-04T22:24:52.956Z,2.43
2018-11-04T22:27:20.535Z,4.63
2018-11-04T22:29:47.984Z,2.23
2018-11-04T22:32:15.482Z,3.10
2018-11-04T22:34:43.163Z,3.93
2018-11-04T22:37:10.607Z,2.73
2018-11-04T22:39:38.112Z,2.20
2018-11-04T22:42:06.095Z,2.60
2018-11-04T22:44:33.530Z,1.10
2018-11-04T22:47:00.998Z,5.70
2018-11-04T22:49:28.755Z,3.23
2018-11-04T22:51:56.229Z,2.57
2018-11-04T22:54:23.682Z,4.63
2018-11-04T22:56:51.549Z,2.00
2018-11-04T22:59:19.057Z,2.33
2018-11-04T23:01:46.561Z,4.07
2018-11-04T23:04:14.408Z,4.03
2018-11-04T23:06:41.882Z,2.43
2018-11-04T23:09:09.821Z,1.70
2018-11-04T23:11:37.801Z,1.73
2018-11-04T23:14:05.376Z,2.03
2018-11-04T23:16:32.917Z,6.10
2018-11-04T23:19:00.643Z,2.80
2018-11-04T23:21:28.132Z,2.70
2018-11-04T23:23:55.580Z,2.73
2018-11-04T23:26:23.358Z,2.63
2018-11-04T23:28:50.926Z,3.60
2018-11-04T23:31:18.441Z,2.33
2018-11-04T23:33:46.335Z,1.60
2018-11-04T23:36:13.792Z,4.13
2018-11-04T23:38:41.348Z,1.80
2018-11-04T23:41:09.169Z,2.50
2018-11-04T23:43:36.693Z,4.63
2018-11-04T23:46:04.459Z,3.63
2018-11-04T23:48:32.484Z,4.80
2018-11-04T23:51:00.039Z,2.97
2018-11-04T23:53:27.493Z,4.40
2018-11-04T23:55:55.355Z,3.50
2018-11-04T23:58:22.801Z,4.07
